Time;durP1;ratioP1;P1;durP2;ratioP2;P2;SDS_P1;SDS_P2;PMS_P1;PMS_P2;Temp;Humidity;BMP_temperature;BMP_pressure;BME280_temperature;BME280_humidity;BME280_pressure;Samples;Min_cycle;Max_cycle;Signal;HPM_P1;HPM_P2
2022/10/02 00:02:32;;;;;;;4.25;0.70;;;12.60;99.90;;;;;;5037606;28;20044;-81
2022/10/02 00:05:24;;;;;;;3.05;1.25;;;13.50;99.90;;;;;;5035561;28;20122;-79
2022/10/02 00:08:02;;;;;;;7.30;2.05;;;13.30;99.90;;;;;;5002789;28;20497;-81
2022/10/02 00:10:43;;;;;;;2.67;1.23;;;13.30;99.90;;;;;;5041604;28;20485;-82
2022/10/02 00:13:15;;;;;;;5.68;1.60;;;13.30;99.90;;;;;;5042420;28;20034;-80
2022/10/02 00:15:41;;;;;;;1.50;0.93;;;12.70;99.90;;;;;;5041203;28;20032;-80
2022/10/02 00:18:13;;;;;;;10.55;1.58;;;12.80;99.90;;;;;;5044340;28;20455;-81
2022/10/02 00:20:51;;;;;;;2.75;0.68;;;13.60;99.90;;;;;;5041581;28;20412;-80
2022/10/02 00:23:28;;;;;;;1.50;0.98;;;13.00;99.90;;;;;;5038433;28;20473;-81
2022/10/02 00:26:47;;;;;;;13.95;1.10;;;12.90;99.90;;;;;;5041864;28;20597;-81
2022/10/02 00:29:30;;;;;;;2.83;1.13;;;13.40;99.90;;;;;;5019238;28;20083;-80
2022/10/02 00:31:56;;;;;;;4.70;0.90;;;;;;;;;;5040073;28;20365;-82
2022/10/02 00:34:55;;;;;;;9.40;1.08;;;13.90;99.90;;;;;;5042013;28;20037;-82
2022/10/02 00:37:55;;;;;;;3.10;1.38;;;13.30;99.90;;;;;;5043639;28;20129;-81
2022/10/02 00:40:42;;;;;;;5.63;1.13;;;;;;;;;;5014486;28;20036;-80
2022/10/02 00:43:23;;;;;;;4.97;1.65;;;;;;;;;;5041815;28;20072;-81
2022/10/02 00:46:10;;;;;;;2.08;0.90;;;14.00;99.90;;;;;;5039768;28;20100;-81
2022/10/02 00:48:46;;;;;;;14.00;1.38;;;;;;;;;;5033622;28;20029;-80
2022/10/02 00:51:31;;;;;;;5.82;0.95;;;13.70;99.90;;;;;;5041003;28;20032;-81
2022/10/02 00:54:12;;;;;;;3.58;1.17;;;;;;;;;;5040866;28;20032;-80
2022/10/02 00:56:48;;;;;;;3.22;0.75;;;12.70;99.90;;;;;;5041761;28;20078;-82
2022/10/02 00:59:29;;;;;;;2.53;0.93;;;13.60;99.90;;;;;;5041984;28;20060;-81
2022/10/02 01:02:00;;;;;;;6.53;0.95;;;13.00;99.90;;;;;;5041114;28;20156;-81
2022/10/02 01:04:37;;;;;;;4.05;0.73;;;13.50;99.90;;;;;;5036928;28;20021;-81
2022/10/02 01:07:09;;;;;;;2.05;0.90;;;13.80;99.90;;;;;;5036684;28;21125;-81
2022/10/02 01:09:36;;;;;;;1.13;0.80;;;12.90;99.90;;;;;;5038509;28;20048;-82
2022/10/02 01:12:02;;;;;;;3.70;0.93;;;13.50;99.90;;;;;;5042970;28;21731;-82
2022/10/02 01:14:35;;;;;;;2.08;0.65;;;;;;;;;;5038728;28;20484;-80
2022/10/02 01:17:02;;;;;;;3.85;1.15;;;;;;;;;;5036334;28;20393;-82
2022/10/02 01:19:36;;;;;;;8.48;1.25;;;13.00;99.90;;;;;;5043435;28;20090;-80
2022/10/02 01:22:15;;;;;;;5.57;1.00;;;;;;;;;;5030798;28;20033;-81
2022/10/02 01:24:49;;;;;;;6.25;0.73;;;13.20;99.90;;;;;;5040237;28;20029;-80
2022/10/02 01:27:14;;;;;;;6.78;0.82;;;12.60;99.90;;;;;;5037755;28;20025;-81
2022/10/02 01:29:42;;;;;;;2.55;0.70;;;;;;;;;;5041751;28;20033;-80
2022/10/02 01:32:08;;;;;;;1.90;1.08;;;12.90;99.90;;;;;;5039186;28;20025;-81
2022/10/02 01:34:34;;;;;;;2.88;1.58;;;;;;;;;;5058324;28;20025;-78
2022/10/02 01:37:01;;;;;;;3.15;0.98;;;;;;;;;;5055931;28;20268;-79
2022/10/02 01:39:26;;;;;;;3.45;0.50;;;12.90;99.90;;;;;;5055084;28;20040;-78
2022/10/02 01:41:54;;;;;;;7.22;0.93;;;;;;;;;;5055128;28;20036;-80
2022/10/02 01:44:20;;;;;;;3.13;0.63;;;13.00;99.90;;;;;;5039663;28;20107;-80
2022/10/02 01:47:08;;;;;;;4.43;0.90;;;13.40;99.90;;;;;;5041312;28;20079;-79
2022/10/02 01:50:00;;;;;;;1.65;0.85;;;;;;;;;;5041739;28;20021;-78
2022/10/02 01:52:46;;;;;;;0.70;0.40;;;;;;;;;;5040606;28;20070;-78
2022/10/02 01:55:31;;;;;;;1.90;0.85;;;;;;;;;;5035845;28;20041;-78
2022/10/02 01:58:01;;;;;;;7.25;0.57;;;12.50;99.90;;;;;;5040230;28;20040;-80
2022/10/02 02:00:40;;;;;;;1.65;0.70;;;12.30;99.90;;;;;;5032572;28;20033;-79
2022/10/02 02:03:20;;;;;;;1.52;0.40;;;13.30;99.90;;;;;;5036388;28;20120;-78
2022/10/02 02:05:46;;;;;;;2.92;0.60;;;;;;;;;;5041303;28;20088;-78
2022/10/02 02:08:12;;;;;;;7.53;0.85;;;;;;;;;;5038567;28;20028;-79
2022/10/02 02:10:38;;;;;;;4.15;1.30;;;;;;;;;;5036532;28;20033;-79
2022/10/02 02:13:18;;;;;;;2.75;0.70;;;13.40;99.90;;;;;;5041397;28;20064;-79
2022/10/02 02:15:59;;;;;;;1.52;0.60;;;12.80;99.90;;;;;;5035847;28;20638;-79
2022/10/02 02:18:34;;;;;;;7.63;0.65;;;;;;;;;;5039847;28;20368;-79
2022/10/02 02:21:08;;;;;;;4.10;0.70;;;12.60;99.90;;;;;;5035945;28;20032;-81
2022/10/02 02:23:36;;;;;;;6.10;0.68;;;;;;;;;;5046035;28;20029;-79
2022/10/02 02:26:04;;;;;;;3.65;0.80;;;;;;;;;;5035629;28;20497;-79
2022/10/02 02:28:32;;;;;;;2.25;0.85;;;;;;;;;;5037979;28;20045;-79
2022/10/02 02:31:00;;;;;;;2.30;0.88;;;13.30;99.90;;;;;;5032392;28;20079;-79
2022/10/02 02:33:32;;;;;;;2.40;0.68;;;;;;;;;;5041032;28;22058;-79
2022/10/02 02:36:02;;;;;;;1.85;0.40;;;12.20;99.90;;;;;;5037325;28;20021;-80
2022/10/02 02:38:37;;;;;;;1.45;0.65;;;13.00;99.90;;;;;;5036799;28;20049;-79
2022/10/02 02:41:08;;;;;;;1.77;0.47;;;12.70;99.90;;;;;;5037399;28;20056;-80
2022/10/02 02:43:44;;;;;;;1.58;0.60;;;13.30;99.90;;;;;;5035138;28;20037;-79
2022/10/02 02:46:19;;;;;;;6.63;1.30;;;13.30;99.90;;;;;;5034980;28;20095;-79
2022/10/02 02:48:47;;;;;;;1.08;0.60;;;;;;;;;;5035086;28;20033;-80
2022/10/02 02:51:28;;;;;;;8.30;1.10;;;13.30;99.90;;;;;;5036353;28;20021;-80
2022/10/02 02:53:58;;;;;;;4.03;0.85;;;;;;;;;;5036489;28;20037;-80
2022/10/02 02:56:25;;;;;;;5.10;0.88;;;;;;;;;;5036274;28;20025;-80
2022/10/02 02:58:51;;;;;;;4.60;1.00;;;;;;;;;;5038664;28;20044;-79
2022/10/02 03:01:16;;;;;;;2.47;0.80;;;13.50;99.90;;;;;;5032170;28;20033;-79
2022/10/02 03:03:42;;;;;;;3.83;0.52;;;12.40;99.90;;;;;;5036092;28;20029;-79
2022/10/02 03:06:17;;;;;;;1.88;0.88;;;13.60;99.90;;;;;;5038378;28;20029;-79
2022/10/02 03:08:45;;;;;;;5.03;1.17;;;13.30;99.90;;;;;;5037742;28;20046;-79
2022/10/02 03:11:49;;;;;;;5.72;0.95;;;13.20;99.90;;;;;;5035663;28;20183;-79
2022/10/02 03:14:24;;;;;;;6.00;1.15;;;;;;;;;;5031203;28;20139;-81
2022/10/02 03:17:05;;;;;;;5.88;1.10;;;13.20;99.90;;;;;;5033012;28;20029;-78
2022/10/02 03:20:07;;;;;;;4.72;1.20;;;13.40;99.90;;;;;;5042069;28;20032;-79
2022/10/02 03:22:48;;;;;;;1.13;0.80;;;12.60;99.90;;;;;;5030323;28;20032;-79
2022/10/02 03:25:30;;;;;;;1.52;1.10;;;;;;;;;;5035594;28;20102;-79
2022/10/02 03:28:27;;;;;;;1.08;0.73;;;13.20;99.90;;;;;;5030281;28;20101;-79
2022/10/02 03:30:55;;;;;;;1.50;0.85;;;13.20;99.90;;;;;;5033439;28;20598;-79
2022/10/02 03:33:22;;;;;;;2.50;1.42;;;;;;;;;;5034025;28;20630;-80
2022/10/02 03:35:49;;;;;;;3.67;1.23;;;;;;;;;;5035174;28;20116;-79
2022/10/02 03:38:16;;;;;;;1.17;0.60;;;12.50;99.90;;;;;;5033386;28;20033;-79
2022/10/02 03:40:42;;;;;;;1.45;0.90;;;;;;;;;;5035074;28;20044;-79
2022/10/02 03:43:17;;;;;;;2.20;1.13;;;13.10;99.90;;;;;;5034220;28;20021;-79
2022/10/02 03:45:43;;;;;;;5.50;1.10;;;;;;;;;;5035938;28;20151;-80
2022/10/02 03:48:08;;;;;;;2.30;1.20;;;13.60;99.90;;;;;;5037722;28;20036;-80
2022/10/02 03:50:34;;;;;;;8.52;1.60;;;;;;;;;;5035253;28;20425;-80
2022/10/02 03:53:00;;;;;;;6.15;1.33;;;;;;;;;;5036440;28;20017;-79
2022/10/02 03:55:36;;;;;;;4.68;1.67;;;13.30;99.90;;;;;;5036784;28;20034;-80
2022/10/02 03:58:09;;;;;;;7.38;1.45;;;13.40;99.90;;;;;;5034509;28;20022;-80
2022/10/02 04:00:45;;;;;;;3.25;1.00;;;13.20;99.90;;;;;;5024893;28;20025;-80
2022/10/02 04:03:17;;;;;;;2.17;1.10;;;;;;;;;;5028920;28;20036;-79
2022/10/02 04:05:50;;;;;;;4.72;1.48;;;;;;;;;;5031632;28;20039;-79
2022/10/02 04:08:18;;;;;;;4.82;1.05;;;;;;;;;;5034597;28;20033;-81
2022/10/02 04:11:13;;;;;;;3.58;1.38;;;12.40;99.90;;;;;;5042038;28;20032;-79
2022/10/02 04:13:45;;;;;;;8.02;1.50;;;13.40;99.90;;;;;;5036375;28;20045;-79
2022/10/02 04:16:27;;;;;;;1.90;0.90;;;;;;;;;;5036128;28;20035;-80
2022/10/02 04:19:22;;;;;;;5.40;1.13;;;;;;;;;;5031960;28;20040;-79
2022/10/02 04:22:09;;;;;;;10.50;1.10;;;13.40;99.90;;;;;;5021892;28;20040;-79
2022/10/02 04:24:47;;;;;;;4.35;0.70;;;13.60;99.90;;;;;;5037438;28;20026;-79
2022/10/02 04:27:18;;;;;;;5.15;0.85;;;;;;;;;;5037392;28;20185;-80
2022/10/02 04:29:48;;;;;;;6.07;0.95;;;;;;;;;;5031307;28;20911;-79
2022/10/02 04:32:16;;;;;;;3.88;1.00;;;;;;;;;;5026728;28;20132;-81
2022/10/02 04:34:42;;;;;;;1.20;0.75;;;13.70;99.90;;;;;;5039487;28;20510;-80
2022/10/02 04:37:08;;;;;;;3.60;1.13;;;;;;;;;;5030580;28;20033;-80
2022/10/02 04:39:45;;;;;;;6.53;0.98;;;;;;;;;;5042321;28;20040;-81
2022/10/02 04:42:14;;;;;;;6.32;1.40;;;;;;;;;;5037381;28;20032;-80
2022/10/02 04:45:14;;;;;;;8.05;2.05;;;12.50;99.90;;;;;;5038442;28;20036;-79
2022/10/02 04:48:05;;;;;;;8.90;1.23;;;12.80;99.90;;;;;;5031037;28;20029;-79
2022/10/02 04:50:38;;;;;;;7.88;1.30;;;13.40;99.90;;;;;;5038969;28;20136;-79
2022/10/02 04:53:28;;;;;;;9.85;0.70;;;13.90;99.90;;;;;;5038563;28;20025;-79
2022/10/02 04:56:09;;;;;;;2.65;1.00;;;;;;;;;;5048482;28;20032;-79
2022/10/02 04:58:50;;;;;;;8.05;1.02;;;13.90;99.90;;;;;;5039185;28;20040;-79
2022/10/02 05:01:33;;;;;;;8.18;1.35;;;13.20;99.90;;;;;;5030033;28;20025;-80
2022/10/02 05:03:59;;;;;;;2.28;0.98;;;;;;;;;;5040908;28;20119;-79
2022/10/02 05:06:31;;;;;;;8.60;1.15;;;;;;;;;;5038498;28;21300;-79
2022/10/02 05:09:04;;;;;;;3.72;0.63;;;13.70;99.90;;;;;;5039838;28;20124;-79
2022/10/02 05:11:52;;;;;;;6.72;1.80;;;;;;;;;;5034903;28;21075;-79
2022/10/02 05:14:27;;;;;;;6.57;1.17;;;13.40;99.90;;;;;;5039012;28;20124;-79
2022/10/02 05:17:21;;;;;;;1.00;0.50;;;12.70;99.90;;;;;;5039413;28;20040;-80
2022/10/02 05:20:17;;;;;;;6.63;1.13;;;;;;;;;;5037361;28;20037;-79
2022/10/02 05:22:43;;;;;;;7.65;0.60;;;;;;;;;;5024540;28;20037;-78
2022/10/02 05:25:12;;;;;;;3.10;1.60;;;;;;;;;;5049023;28;20031;-80
2022/10/02 05:27:53;;;;;;;1.92;0.60;;;13.40;99.90;;;;;;5037766;28;20025;-82
2022/10/02 05:30:20;;;;;;;2.75;0.45;;;13.30;99.90;;;;;;5035302;28;20033;-84
2022/10/02 05:32:46;;;;;;;1.75;0.52;;;;;;;;;;5039617;28;20445;-82
2022/10/02 05:35:17;;;;;;;4.53;0.70;;;13.50;99.90;;;;;;5036891;28;20130;-82
2022/10/02 05:37:48;;;;;;;3.55;0.68;;;;;;;;;;5038904;28;20112;-82
2022/10/02 05:40:32;;;;;;;1.60;0.73;;;12.60;99.90;;;;;;5029183;28;20734;-82
2022/10/02 05:42:58;;;;;;;3.97;0.45;;;;;;;;;;5025457;28;20029;-82
2022/10/02 05:45:24;;;;;;;5.07;0.63;;;;;;;;;;5033147;28;20669;-82
2022/10/02 05:47:50;;;;;;;1.45;0.50;;;;;;;;;;5035985;28;20040;-81
2022/10/02 05:50:18;;;;;;;2.03;0.57;;;;;;;;;;5037982;28;20017;-80
2022/10/02 05:52:53;;;;;;;1.75;0.28;;;12.80;99.90;;;;;;5030411;28;20110;-80
2022/10/02 05:55:40;;;;;;;0.82;0.40;;;;;;;;;;5040673;28;20078;-80
2022/10/02 05:58:13;;;;;;;2.17;0.77;;;13.10;99.90;;;;;;5035826;28;20099;-78
2022/10/02 06:00:51;;;;;;;1.00;0.38;;;;;;;;;;5040565;28;20034;-81
2022/10/02 06:03:18;;;;;;;2.42;0.55;;;12.40;99.90;;;;;;5044889;28;20038;-80
2022/10/02 06:06:18;;;;;;;2.45;0.40;;;13.70;99.90;;;;;;5042811;28;20034;-79
2022/10/02 06:08:52;;;;;;;1.25;0.50;;;;;;;;;;5042826;28;20035;-80
2022/10/02 06:11:22;;;;;;;2.15;1.17;;;;;;;;;;5037700;28;20064;-81
2022/10/02 06:13:51;;;;;;;2.00;0.50;;;;;;;;;;5045183;28;20571;-80
2022/10/02 06:16:24;;;;;;;3.15;0.60;;;13.40;99.90;;;;;;5038957;28;20025;-79
2022/10/02 06:18:56;;;;;;;2.67;0.60;;;12.30;99.90;;;;;;5045750;28;20082;-79
2022/10/02 06:21:37;;;;;;;4.20;1.25;;;13.40;99.90;;;;;;5041064;28;20538;-80
2022/10/02 06:24:10;;;;;;;2.90;0.73;;;13.40;99.90;;;;;;5041697;28;20049;-79
2022/10/02 06:26:48;;;;;;;6.45;1.33;;;13.30;99.90;;;;;;5038969;28;20714;-80
2022/10/02 06:29:43;;;;;;;17.23;1.17;;;13.40;99.90;;;;;;5037986;28;20052;-79
2022/10/02 06:32:09;;;;;;;1.30;0.38;;;;;;;;;;5000965;28;20040;-81
2022/10/02 06:34:35;;;;;;;1.58;0.70;;;;;;;;;;5041525;28;20048;-78
2022/10/02 06:37:24;;;;;;;3.38;0.60;;;13.40;99.90;;;;;;5037040;28;20104;-78
2022/10/02 06:40:31;;;;;;;1.25;0.68;;;13.30;99.90;;;;;;5038989;28;20602;-80
2022/10/02 06:42:57;;;;;;;3.45;0.90;;;;;;;;;;5039691;28;20027;-80
2022/10/02 06:45:39;;;;;;;7.45;2.95;;;13.40;99.90;;;;;;5036426;28;20025;-80
2022/10/02 06:48:19;;;;;;;4.38;1.63;;;13.50;99.90;;;;;;5040875;28;20024;-80
2022/10/02 06:51:06;;;;;;;5.60;1.65;;;13.50;99.90;;;;;;5033163;28;20597;-81
2022/10/02 06:53:55;;;;;;;4.47;1.30;;;12.70;99.90;;;;;;5037148;28;20041;-79
2022/10/02 06:56:39;;;;;;;4.80;1.63;;;13.90;99.90;;;;;;5018948;28;20163;-79
2022/10/02 06:59:05;;;;;;;5.25;1.50;;;;;;;;;;5034006;28;20048;-79
2022/10/02 07:01:30;;;;;;;6.32;0.73;;;;;;;;;;5033744;28;20025;-79
2022/10/02 07:04:15;;;;;;;1.92;0.70;;;;;;;;;;5034244;28;20111;-81
2022/10/02 07:07:18;;;;;;;3.22;0.50;;;13.10;99.90;;;;;;5044239;28;20130;-78
2022/10/02 07:10:08;;;;;;;4.00;0.98;;;13.90;99.90;;;;;;5053211;28;20040;-78
2022/10/02 07:13:11;;;;;;;6.82;0.63;;;13.60;99.90;;;;;;5040624;28;20055;-80
2022/10/02 07:16:15;;;;;;;5.13;0.85;;;13.50;99.90;;;;;;5046545;28;20029;-80
2022/10/02 07:18:57;;;;;;;5.30;1.98;;;12.70;99.90;;;;;;5040332;28;20112;-80
2022/10/02 07:21:34;;;;;;;5.85;0.63;;;13.20;99.90;;;;;;5050951;28;20026;-80
2022/10/02 07:24:38;;;;;;;0.75;0.45;;;12.90;99.90;;;;;;5051961;28;20029;-80
2022/10/02 07:27:03;;;;;;;1.73;0.25;;;13.60;99.90;;;;;;5046018;28;20024;-79
2022/10/02 07:29:37;;;;;;;3.55;1.15;;;13.40;99.90;;;;;;5046897;28;20029;-80
2022/10/02 07:32:20;;;;;;;3.85;1.15;;;;;;;;;;5048962;28;20116;-81
2022/10/02 07:35:23;;;;;;;7.80;0.70;;;13.30;99.90;;;;;;5049276;28;20063;-80
2022/10/02 07:38:11;;;;;;;0.90;0.30;;;13.80;99.90;;;;;;5038444;28;20103;-81
2022/10/02 07:40:43;;;;;;;3.25;1.58;;;;;;;;;;5036620;28;20030;-82
2022/10/02 07:43:17;;;;;;;0.68;0.35;;;14.00;99.90;;;;;;5040133;28;20029;-82
2022/10/02 07:46:09;;;;;;;0.73;0.40;;;13.60;99.90;;;;;;5044473;28;20025;-81
2022/10/02 07:48:46;;;;;;;0.85;0.40;;;13.10;99.90;;;;;;5018765;28;20052;-82
2022/10/02 07:51:47;;;;;;;0.43;0.28;;;13.60;99.90;;;;;;5041953;28;20064;-81
2022/10/02 07:54:28;;;;;;;0.60;0.35;;;13.70;99.90;;;;;;5047451;28;20094;-81
2022/10/02 07:56:58;;;;;;;1.65;0.55;;;14.00;99.90;;;;;;5036012;28;20111;-81
2022/10/02 07:59:24;;;;;;;1.55;0.90;;;;;;;;;;5037102;28;20048;-81
2022/10/02 08:01:51;;;;;;;1.65;0.30;;;;;;;;;;5042001;28;20134;-80
2022/10/02 08:04:24;;;;;;;3.15;0.30;;;13.90;99.90;;;;;;5040407;28;20032;-82
2022/10/02 08:06:56;;;;;;;1.20;0.30;;;13.90;99.90;;;;;;5038935;28;23330;-81
2022/10/02 08:09:32;;;;;;;0.95;0.40;;;13.80;99.90;;;;;;5046886;28;20029;-81
2022/10/02 08:12:08;;;;;;;0.15;0.13;;;13.90;99.90;;;;;;5041318;28;20025;-81
2022/10/02 08:14:37;;;;;;;1.13;0.43;;;;;;;;;;5030334;28;20048;-80
2022/10/02 08:17:22;;;;;;;1.48;0.50;;;13.90;99.90;;;;;;5036127;28;20256;-80
2022/10/02 08:19:50;;;;;;;0.88;0.22;;;14.30;99.90;;;;;;5038786;28;20036;-81
2022/10/02 08:22:32;;;;;;;3.25;0.80;;;14.20;99.90;;;;;;5042984;28;20052;-81
2022/10/02 08:25:04;;;;;;;0.98;0.38;;;14.10;99.90;;;;;;5041555;28;21712;-81
2022/10/02 08:27:45;;;;;;;1.58;0.43;;;14.20;99.90;;;;;;5041996;28;20056;-81
2022/10/02 08:30:12;;;;;;;0.93;0.50;;;13.80;99.90;;;;;;5039246;28;20029;-80
2022/10/02 08:32:38;;;;;;;1.42;0.60;;;;;;;;;;5039086;28;20064;-80
2022/10/02 08:35:15;;;;;;;1.02;0.40;;;14.10;99.90;;;;;;5041592;28;20060;-80
2022/10/02 08:38:00;;;;;;;2.05;0.28;;;14.30;99.90;;;;;;5045097;28;20105;-80
2022/10/02 08:41:03;;;;;;;0.47;0.30;;;14.00;99.90;;;;;;5043953;28;20092;-80
2022/10/02 08:44:06;;;;;;;1.08;0.55;;;14.50;99.90;;;;;;5042994;28;20093;-79
2022/10/02 08:47:10;;;;;;;0.63;0.30;;;14.00;99.90;;;;;;5043030;28;20030;-80
2022/10/02 08:49:53;;;;;;;0.90;0.32;;;14.10;99.90;;;;;;5009768;28;20458;-79
2022/10/02 08:52:52;;;;;;;1.13;0.25;;;14.10;99.90;;;;;;5047631;28;20035;-81
2022/10/02 08:55:18;;;;;;;0.20;0.20;;;;;;;;;;5039580;28;20029;-81
2022/10/02 08:57:59;;;;;;;0.90;0.25;;;14.40;99.90;;;;;;5035536;28;20072;-80
2022/10/02 09:00:54;;;;;;;1.25;0.60;;;14.40;99.90;;;;;;5041071;28;20025;-81
2022/10/02 09:03:53;;;;;;;0.85;0.28;;;13.60;99.90;;;;;;5051702;28;20116;-79
2022/10/02 09:06:51;;;;;;;1.25;0.50;;;14.40;99.90;;;;;;5029574;28;20029;-79
2022/10/02 09:09:17;;;;;;;2.65;0.40;;;;;;;;;;5034364;28;20114;-82
2022/10/02 09:12:19;;;;;;;1.23;0.55;;;14.60;99.90;;;;;;5038104;28;20071;-80
2022/10/02 09:14:51;;;;;;;0.73;0.20;;;14.00;99.90;;;;;;5037794;28;20040;-81
2022/10/02 09:17:41;;;;;;;0.20;0.10;;;14.00;99.90;;;;;;5040458;28;20050;-81
2022/10/02 09:20:45;;;;;;;1.33;0.30;;;14.10;99.90;;;;;;5040876;28;20037;-82
2022/10/02 09:23:37;;;;;;;2.15;0.52;;;;;;;;;;4979913;28;20039;-81
2022/10/02 09:26:19;;;;;;;1.15;0.40;;;14.40;99.90;;;;;;4972433;28;20149;-82
2022/10/02 09:28:45;;;;;;;1.48;0.50;;;;;;;;;;5021293;28;20620;-82
2022/10/02 09:31:38;;;;;;;1.00;0.30;;;14.20;99.90;;;;;;5047410;28;20080;-81
2022/10/02 09:34:50;;;;;;;1.25;0.45;;;14.30;99.90;;;;;;5040955;28;20033;-81
2022/10/02 09:37:46;;;;;;;0.93;0.30;;;14.10;99.90;;;;;;5045354;28;20028;-80
2022/10/02 09:40:18;;;;;;;3.53;1.08;;;;;;;;;;5041804;28;20028;-80
2022/10/02 09:43:21;;;;;;;1.42;0.50;;;14.30;99.90;;;;;;5044945;28;20113;-81
2022/10/02 09:46:30;;;;;;;1.17;0.45;;;14.60;99.90;;;;;;5043795;28;20029;-80
2022/10/02 09:49:26;;;;;;;1.35;0.30;;;14.50;99.90;;;;;;5042870;28;20021;-81
2022/10/02 09:52:00;;;;;;;0.38;0.10;;;14.70;99.90;;;;;;5027812;28;20908;-81
2022/10/02 09:54:26;;;;;;;0.75;0.30;;;;;;;;;;5040105;28;20098;-81
2022/10/02 09:57:30;;;;;;;0.35;0.20;;;15.40;99.90;;;;;;5040267;28;20556;-81
2022/10/02 10:00:03;;;;;;;0.30;0.00;;;11.70;99.90;;;;;;5035820;28;20021;-82
2022/10/02 10:02:37;;;;;;;0.20;0.10;;;14.90;99.90;;;;;;5039303;28;20040;-82
2022/10/02 10:05:50;;;;;;;0.50;0.20;;;14.80;99.90;;;;;;5033594;28;20031;-81
2022/10/02 10:08:49;;;;;;;0.28;0.05;;;14.70;99.90;;;;;;5044251;28;20021;-81
2022/10/02 10:11:29;;;;;;;2.17;0.40;;;;;;;;;;5052968;28;20152;-81
2022/10/02 10:14:20;;;;;;;0.28;0.28;;;14.80;99.90;;;;;;5039419;28;20047;-81
2022/10/02 10:16:57;;;;;;;0.60;0.30;;;14.60;99.90;;;;;;5046401;28;20040;-81
2022/10/02 10:19:47;;;;;;;0.38;0.13;;;14.80;99.90;;;;;;5055278;28;20017;-81
2022/10/02 10:22:50;;;;;;;0.28;0.20;;;14.80;99.90;;;;;;5044561;28;20029;-81
2022/10/02 10:25:19;;;;;;;2.60;0.85;;;14.40;99.90;;;;;;5055953;28;20025;-81
2022/10/02 10:28:01;;;;;;;1.17;0.45;;;;;;;;;;5049954;28;20025;-81
2022/10/02 10:30:27;;;;;;;0.10;0.00;;;;;;;;;;5043408;28;20043;-82
2022/10/02 10:33:16;;;;;;;1.55;0.28;;;13.50;99.90;;;;;;5045994;28;20033;-82
2022/10/02 10:39:25;;;;;;;1.23;0.60;;;14.10;99.90;;;;;;5047881;28;20048;-81
2022/10/02 10:42:29;;;;;;;0.98;0.50;;;14.30;99.90;;;;;;5047761;28;20574;-80
2022/10/02 10:44:59;;;;;;;0.40;0.20;;;;;;;;;;5000386;28;20588;-81
2022/10/02 10:47:33;;;;;;;0.30;0.30;;;14.10;99.90;;;;;;5036645;28;20145;-81
2022/10/02 10:50:34;;;;;;;0.10;0.10;;;14.40;99.90;;;;;;5041259;28;20029;-81
2022/10/02 10:53:02;;;;;;;0.40;0.13;;;;;;;;;;5046061;28;20045;-80
2022/10/02 10:55:46;;;;;;;0.32;0.20;;;13.60;99.90;;;;;;5050353;28;20107;-80
2022/10/02 10:58:13;;;;;;;;;;;;;;;;;;5047844;28;20041;-79
2022/10/02 11:00:49;;;;;;;0.32;0.30;;;14.00;99.90;;;;;;5047321;28;19917;-79
2022/10/02 11:03:39;;;;;;;1.02;0.60;;;14.50;99.90;;;;;;5046739;28;20083;-80
2022/10/02 11:06:26;;;;;;;0.30;0.20;;;14.40;99.90;;;;;;5043606;28;20032;-80
2022/10/02 11:09:03;;;;;;;0.35;0.20;;;14.30;99.90;;;;;;5045239;28;20098;-79
2022/10/02 11:12:01;;;;;;;0.52;0.13;;;14.00;99.90;;;;;;5047847;28;20032;-80
2022/10/02 11:14:49;;;;;;;0.10;0.10;;;;;;;;;;5045926;28;20176;-79
2022/10/02 11:17:30;;;;;;;0.38;0.10;;;14.30;99.90;;;;;;5043168;28;20024;-79
2022/10/02 11:20:14;;;;;;;0.45;0.13;;;14.60;99.90;;;;;;5032440;28;20092;-79
2022/10/02 11:22:40;;;;;;;0.10;0.10;;;;;;;;;;5037547;28;20109;-79
2022/10/02 11:25:26;;;;;;;0.40;0.10;;;14.20;99.90;;;;;;5048599;28;20030;-78
2022/10/02 11:28:33;;;;;;;0.55;0.38;;;13.40;99.90;;;;;;5048214;28;20037;-80
2022/10/02 11:31:02;;;;;;;1.20;0.28;;;14.30;99.90;;;;;;4983385;28;20034;-79
2022/10/02 11:33:34;;;;;;;4.43;1.02;;;;;;;;;;5028489;28;20543;-79
2022/10/02 11:36:14;;;;;;;0.63;0.40;;;14.00;99.90;;;;;;5043156;28;20036;-78
2022/10/02 11:38:48;;;;;;;0.38;0.20;;;;;;;;;;5043906;28;20518;-77
2022/10/02 11:41:45;;;;;;;0.17;0.17;;;14.50;99.90;;;;;;5047297;28;20459;-78
2022/10/02 11:44:11;;;;;;;2.17;0.20;;;;;;;;;;5033419;28;20058;-78
2022/10/02 11:47:18;;;;;;;0.17;0.00;;;14.60;99.90;;;;;;5039891;28;20028;-80
2022/10/02 11:50:22;;;;;;;0.47;0.10;;;14.80;99.90;;;;;;5041138;28;20132;-79
2022/10/02 11:53:01;;;;;;;0.00;0.00;;;14.60;99.90;;;;;;5037528;28;20021;-79
2022/10/02 11:55:53;;;;;;;0.40;0.20;;;14.80;99.90;;;;;;5037665;28;20091;-81
2022/10/02 11:58:19;;;;;;;1.15;0.90;;;;;;;;;;5043227;28;20018;-80
2022/10/02 12:00:55;;;;;;;1.77;1.42;;;;;;;;;;5032824;28;20033;-81
2022/10/02 12:03:46;;;;;;;1.58;0.90;;;15.30;99.90;;;;;;5042870;28;20061;-82
2022/10/02 12:06:24;;;;;;;0.90;0.38;;;;;;;;;;5032734;28;20381;-79
2022/10/02 12:09:02;;;;;;;1.67;0.30;;;;;;;;;;5038542;28;20068;-81
2022/10/02 12:11:35;;;;;;;2.20;0.25;;;;;;;;;;5040426;28;20514;-81
2022/10/02 12:14:10;;;;;;;0.50;0.32;;;;;;;;;;5035483;28;20100;-79
2022/10/02 12:16:42;;;;;;;0.10;0.10;;;;;;;;;;5031220;28;20041;-80
2022/10/02 12:19:27;;;;;;;0.35;0.10;;;;;;;;;;5033161;28;20633;-79
2022/10/02 12:28:33;;;;;;;0.00;0.00;;;;;;;;;;5029170;28;20044;-80
2022/10/02 12:31:05;;;;;;;1.00;0.10;;;;;;;;;;5032980;28;20030;-80
2022/10/02 12:33:41;;;;;;;0.10;0.00;;;;;;;;;;5043404;28;20214;-81
2022/10/02 12:36:55;;;;;;;0.00;0.00;;;14.50;99.90;;;;;;5037240;28;20047;-81
2022/10/02 12:39:21;;;;;;;4.15;0.28;;;;;;;;;;5017970;28;20052;-80
2022/10/02 12:42:13;;;;;;;0.22;0.10;;;14.20;99.90;;;;;;5045597;28;20045;-80
2022/10/02 12:44:44;;;;;;;0.30;0.20;;;;;;;;;;5011904;28;20060;-80
2022/10/02 12:47:11;;;;;;;3.50;0.70;;;;;;;;;;5052969;28;20487;-80
2022/10/02 12:49:55;;;;;;;3.25;0.57;;;14.20;99.90;;;;;;5052541;28;20032;-80
2022/10/02 12:52:22;;;;;;;1.30;0.50;;;;;;;;;;5051620;28;20091;-80
2022/10/02 12:55:26;;;;;;;0.55;0.32;;;14.50;99.90;;;;;;5043606;28;20579;-80
2022/10/02 12:58:09;;;;;;;0.45;0.30;;;;;;;;;;5034794;28;20033;-80
2022/10/02 13:01:06;;;;;;;2.88;1.02;;;14.00;99.90;;;;;;5049575;28;20044;-80
2022/10/02 13:03:35;;;;;;;4.43;1.90;;;;;;;;;;5037110;28;20379;-82
2022/10/02 13:06:07;;;;;;;1.77;0.70;;;14.50;99.90;;;;;;5042287;28;20091;-81
2022/10/02 13:08:40;;;;;;;0.43;0.30;;;;;;;;;;5039568;28;20029;-79
2022/10/02 13:11:19;;;;;;;0.47;0.10;;;14.40;99.90;;;;;;5044268;28;20025;-79
2022/10/02 13:13:48;;;;;;;0.82;0.28;;;;;;;;;;5037384;28;20029;-80
2022/10/02 13:16:21;;;;;;;0.60;0.10;;;14.60;99.90;;;;;;5037652;28;20033;-80
2022/10/02 13:19:22;;;;;;;0.75;0.38;;;14.30;99.90;;;;;;5045311;28;20067;-82
2022/10/02 13:22:18;;;;;;;2.50;0.35;;;14.80;99.90;;;;;;5047564;28;20538;-81
2022/10/02 13:25:00;;;;;;;0.60;0.40;;;14.50;99.90;;;;;;5049518;28;20109;-80
2022/10/02 13:27:41;;;;;;;0.45;0.17;;;;;;;;;;5046582;28;20032;-80
2022/10/02 13:30:06;;;;;;;0.10;0.10;;;;;;;;;;5049258;28;20028;-81
2022/10/02 13:33:10;;;;;;;0.75;0.10;;;14.30;99.90;;;;;;5050469;28;20125;-80
2022/10/02 13:35:56;;;;;;;0.00;0.00;;;14.20;99.90;;;;;;5049962;28;20032;-81
2022/10/02 13:38:41;;;;;;;0.22;0.10;;;;;;;;;;5044723;28;20408;-80
2022/10/02 13:41:52;;;;;;;0.85;0.28;;;14.00;99.90;;;;;;5048829;28;20021;-82
2022/10/02 13:44:27;;;;;;;0.10;0.10;;;;;;;;;;5021782;28;20589;-81
2022/10/02 13:46:53;;;;;;;6.38;2.72;;;;;;;;;;5045654;28;20040;-81
2022/10/02 13:49:38;;;;;;;0.90;0.45;;;14.20;99.90;;;;;;5046839;28;20041;-80
2022/10/02 13:52:23;;;;;;;0.40;0.20;;;14.70;99.90;;;;;;5035666;28;20040;-82
2022/10/02 13:55:03;;;;;;;0.43;0.20;;;14.70;99.90;;;;;;5037774;28;20037;-81
2022/10/02 13:57:58;;;;;;;0.20;0.03;;;14.50;99.90;;;;;;5041524;28;20083;-84
2022/10/02 14:00:36;;;;;;;0.00;0.00;;;14.60;99.90;;;;;;5040771;28;20028;-82
2022/10/02 14:03:20;;;;;;;0.30;0.10;;;14.70;99.90;;;;;;5032227;28;20036;-82
2022/10/02 14:06:20;;;;;;;0.00;0.00;;;14.80;99.90;;;;;;5030419;28;20175;-81
2022/10/02 14:09:11;;;;;;;0.40;0.20;;;15.40;99.90;;;;;;5038999;28;20029;-81
2022/10/02 14:11:37;;;;;;;6.80;4.03;;;;;;;;;;5041027;28;20037;-81
2022/10/02 14:14:16;;;;;;;3.50;1.63;;;14.50;99.90;;;;;;5041629;28;20037;-82
2022/10/02 14:17:19;;;;;;;2.40;1.50;;;14.80;99.90;;;;;;5038862;28;20040;-81
2022/10/02 14:20:11;;;;;;;0.10;0.10;;;14.20;99.90;;;;;;5042428;28;20017;-82
2022/10/02 14:22:48;;;;;;;1.23;0.65;;;14.20;99.90;;;;;;5045019;28;20029;-83
2022/10/02 14:26:05;;;;;;;2.33;1.27;;;14.10;99.90;;;;;;5042297;28;20427;-82
2022/10/02 14:28:40;;;;;;;3.15;0.68;;;14.50;99.90;;;;;;4948711;28;20424;-81
2022/10/02 14:31:34;;;;;;;1.65;0.90;;;14.10;99.90;;;;;;4949760;28;20058;-82
2022/10/02 14:34:03;;;;;;;0.65;0.22;;;;;;;;;;5012564;28;20041;-81
2022/10/02 14:36:35;;;;;;;0.70;0.32;;;14.40;99.90;;;;;;5036747;28;20029;-81
2022/10/02 14:39:22;;;;;;;1.27;0.40;;;14.40;99.90;;;;;;5049090;28;20028;-80
2022/10/02 14:42:02;;;;;;;4.75;2.70;;;14.00;99.90;;;;;;5039408;28;20453;-82
2022/10/02 14:44:59;;;;;;;1.02;0.60;;;14.00;99.90;;;;;;5051656;28;20082;-81